sensor_id;sensor_type;location;lat;lon;timestamp;P1;durP1;ratioP1;P2;durP2;ratioP2
7211;SDS011;3647;48.792;9.802;2022-09-09T07:06:26;4.53;;;3.00;;
7211;SDS011;3647;48.792;9.802;2022-09-09T07:08:54;3.92;;;2.97;;
7211;SDS011;3647;48.792;9.802;2022-09-09T07:11:23;4.55;;;2.97;;
7211;SDS011;3647;48.792;9.802;2022-09-09T07:13:52;5.22;;;3.08;;
7211;SDS011;3647;48.792;9.802;2022-09-09T07:16:19;6.25;;;3.22;;
7211;SDS011;3647;48.792;9.802;2022-09-09T07:18:48;3.78;;;2.60;;
7211;SDS011;3647;48.792;9.802;2022-09-09T07:21:15;4.53;;;3.25;;
7211;SDS011;3647;48.792;9.802;2022-09-09T07:23:44;6.03;;;2.92;;
7211;SDS011;3647;48.792;9.802;2022-09-09T07:26:12;3.00;;;2.60;;
7211;SDS011;3647;48.792;9.802;2022-09-09T07:28:40;3.35;;;2.67;;
7211;SDS011;3647;48.792;9.802;2022-09-09T07:31:10;6.72;;;2.50;;
7211;SDS011;3647;48.792;9.802;2022-09-09T07:33:41;7.55;;;2.70;;
7211;SDS011;3647;48.792;9.802;2022-09-09T07:36:09;3.92;;;2.33;;
7211;SDS011;3647;48.792;9.802;2022-09-09T07:38:39;5.82;;;3.05;;
7211;SDS011;3647;48.792;9.802;2022-09-09T07:41:10;3.60;;;3.08;;
7211;SDS011;3647;48.792;9.802;2022-09-09T07:43:38;4.18;;;2.53;;
7211;SDS011;3647;48.792;9.802;2022-09-09T07:46:06;3.40;;;2.53;;
7211;SDS011;3647;48.792;9.802;2022-09-09T07:48:33;4.15;;;2.55;;
7211;SDS011;3647;48.792;9.802;2022-09-09T07:51:04;6.00;;;2.78;;
7211;SDS011;3647;48.792;9.802;2022-09-09T07:53:33;4.63;;;2.92;;
7211;SDS011;3647;48.792;9.802;2022-09-09T07:56:04;6.57;;;2.85;;
7211;SDS011;3647;48.792;9.802;2022-09-09T07:58:35;7.68;;;3.20;;
7211;SDS011;3647;48.792;9.802;2022-09-09T08:01:06;4.90;;;2.88;;
7211;SDS011;3647;48.792;9.802;2022-09-09T08:03:34;7.13;;;3.60;;
7211;SDS011;3647;48.792;9.802;2022-09-09T08:06:01;10.18;;;3.03;;
7211;SDS011;3647;48.792;9.802;2022-09-09T08:08:28;4.30;;;2.45;;
7211;SDS011;3647;48.792;9.802;2022-09-09T08:11:01;5.47;;;2.33;;
7211;SDS011;3647;48.792;9.802;2022-09-09T08:13:28;2.90;;;2.08;;
7211;SDS011;3647;48.792;9.802;2022-09-09T08:16:04;2.20;;;1.83;;
7211;SDS011;3647;48.792;9.802;2022-09-09T08:18:32;3.25;;;1.50;;
7211;SDS011;3647;48.792;9.802;2022-09-09T08:21:04;4.70;;;2.28;;
7211;SDS011;3647;48.792;9.802;2022-09-09T08:23:31;3.33;;;1.85;;
7211;SDS011;3647;48.792;9.802;2022-09-09T08:26:02;4.47;;;2.30;;
7211;SDS011;3647;48.792;9.802;2022-09-09T08:28:30;1.80;;;1.40;;
7211;SDS011;3647;48.792;9.802;2022-09-09T08:31:05;4.90;;;1.70;;
7211;SDS011;3647;48.792;9.802;2022-09-09T08:33:36;3.28;;;1.73;;
7211;SDS011;3647;48.792;9.802;2022-09-09T08:36:04;4.60;;;1.60;;
7211;SDS011;3647;48.792;9.802;2022-09-09T08:38:32;4.55;;;2.03;;
7211;SDS011;3647;48.792;9.802;2022-09-09T08:47:39;3.63;;;1.30;;
7211;SDS011;3647;48.792;9.802;2022-09-09T08:50:16;2.67;;;1.15;;
7211;SDS011;3647;48.792;9.802;2022-09-09T08:52:51;2.42;;;1.10;;
7211;SDS011;3647;48.792;9.802;2022-09-09T08:55:24;2.75;;;1.67;;
7211;SDS011;3647;48.792;9.802;2022-09-09T08:57:58;1.45;;;1.10;;
7211;SDS011;3647;48.792;9.802;2022-09-09T09:00:32;1.58;;;1.20;;
7211;SDS011;3647;48.792;9.802;2022-09-09T09:03:09;2.80;;;1.40;;
7211;SDS011;3647;48.792;9.802;2022-09-09T09:05:43;4.22;;;1.30;;
7211;SDS011;3647;48.792;9.802;2022-09-09T09:08:17;2.80;;;1.13;;
7211;SDS011;3647;48.792;9.802;2022-09-09T09:10:51;2.22;;;1.20;;
7211;SDS011;3647;48.792;9.802;2022-09-09T09:13:24;4.55;;;1.48;;
7211;SDS011;3647;48.792;9.802;2022-09-09T09:15:59;2.08;;;1.17;;
7211;SDS011;3647;48.792;9.802;2022-09-09T09:18:33;1.17;;;1.00;;
7211;SDS011;3647;48.792;9.802;2022-09-09T09:21:02;3.20;;;1.30;;
7211;SDS011;3647;48.792;9.802;2022-09-09T09:23:38;2.70;;;1.20;;
7211;SDS011;3647;48.792;9.802;2022-09-09T09:26:10;3.65;;;1.45;;
7211;SDS011;3647;48.792;9.802;2022-09-09T09:28:37;3.35;;;1.60;;
7211;SDS011;3647;48.792;9.802;2022-09-09T09:31:06;2.45;;;2.08;;
7211;SDS011;3647;48.792;9.802;2022-09-09T09:33:38;1.90;;;1.13;;
7211;SDS011;3647;48.792;9.802;2022-09-09T09:36:11;3.83;;;1.00;;
7211;SDS011;3647;48.792;9.802;2022-09-09T09:38:50;2.28;;;1.85;;
7211;SDS011;3647;48.792;9.802;2022-09-09T09:41:28;1.63;;;1.20;;
7211;SDS011;3647;48.792;9.802;2022-09-09T09:43:56;2.53;;;2.13;;
7211;SDS011;3647;48.792;9.802;2022-09-09T09:46:23;5.95;;;1.90;;
7211;SDS011;3647;48.792;9.802;2022-09-09T09:48:59;4.05;;;1.40;;
7211;SDS011;3647;48.792;9.802;2022-09-09T09:51:27;3.15;;;1.38;;
7211;SDS011;3647;48.792;9.802;2022-09-09T09:54:04;2.70;;;1.55;;
7211;SDS011;3647;48.792;9.802;2022-09-09T09:56:41;3.58;;;1.27;;
7211;SDS011;3647;48.792;9.802;2022-09-09T09:59:19;5.47;;;1.45;;
7211;SDS011;3647;48.792;9.802;2022-09-09T10:02:05;3.58;;;1.40;;
7211;SDS011;3647;48.792;9.802;2022-09-09T10:04:44;6.82;;;1.40;;
7211;SDS011;3647;48.792;9.802;2022-09-09T10:07:11;5.60;;;1.73;;
7211;SDS011;3647;48.792;9.802;2022-09-09T10:09:39;1.55;;;1.33;;
7211;SDS011;3647;48.792;9.802;2022-09-09T10:12:09;4.35;;;1.20;;
7211;SDS011;3647;48.792;9.802;2022-09-09T10:14:48;3.45;;;1.23;;
7211;SDS011;3647;48.792;9.802;2022-09-09T10:17:25;3.15;;;1.20;;
7211;SDS011;3647;48.792;9.802;2022-09-09T10:20:07;4.45;;;1.48;;
7211;SDS011;3647;48.792;9.802;2022-09-09T10:22:47;2.10;;;1.30;;
7211;SDS011;3647;48.792;9.802;2022-09-09T10:28:20;2.55;;;1.17;;
7211;SDS011;3647;48.792;9.802;2022-09-09T10:31:02;3.63;;;1.27;;
7211;SDS011;3647;48.792;9.802;2022-09-09T10:33:41;3.25;;;1.25;;
7211;SDS011;3647;48.792;9.802;2022-09-09T10:36:18;2.90;;;1.30;;
7211;SDS011;3647;48.792;9.802;2022-09-09T10:38:47;2.83;;;1.10;;
7211;SDS011;3647;48.792;9.802;2022-09-09T10:41:19;4.95;;;1.13;;
7211;SDS011;3647;48.792;9.802;2022-09-09T10:43:55;2.97;;;1.27;;
7211;SDS011;3647;48.792;9.802;2022-09-09T10:47:00;2.30;;;0.90;;
7211;SDS011;3647;48.792;9.802;2022-09-09T10:49:50;1.95;;;1.15;;
7211;SDS011;3647;48.792;9.802;2022-09-09T10:52:44;4.70;;;1.10;;
7211;SDS011;3647;48.792;9.802;2022-09-09T10:55:20;1.45;;;1.33;;
7211;SDS011;3647;48.792;9.802;2022-09-09T10:57:53;1.08;;;0.75;;
7211;SDS011;3647;48.792;9.802;2022-09-09T11:00:24;1.65;;;1.00;;
7211;SDS011;3647;48.792;9.802;2022-09-09T11:02:58;1.42;;;0.90;;
7211;SDS011;3647;48.792;9.802;2022-09-09T11:05:29;1.67;;;1.25;;
7211;SDS011;3647;48.792;9.802;2022-09-09T11:08:03;2.45;;;0.90;;
7211;SDS011;3647;48.792;9.802;2022-09-09T11:10:38;2.28;;;0.93;;
7211;SDS011;3647;48.792;9.802;2022-09-09T11:13:09;1.90;;;1.00;;
7211;SDS011;3647;48.792;9.802;2022-09-09T11:15:41;2.17;;;0.80;;
7211;SDS011;3647;48.792;9.802;2022-09-09T11:18:11;2.28;;;0.90;;
7211;SDS011;3647;48.792;9.802;2022-09-09T11:20:42;2.38;;;0.82;;
7211;SDS011;3647;48.792;9.802;2022-09-09T11:23:12;2.08;;;0.90;;
7211;SDS011;3647;48.792;9.802;2022-09-09T11:25:43;2.58;;;0.90;;
7211;SDS011;3647;48.792;9.802;2022-09-09T11:28:26;1.85;;;0.73;;
7211;SDS011;3647;48.792;9.802;2022-09-09T11:31:06;1.85;;;0.90;;
7211;SDS011;3647;48.792;9.802;2022-09-09T11:33:49;1.38;;;0.98;;
7211;SDS011;3647;48.792;9.802;2022-09-09T11:36:28;1.85;;;0.90;;
7211;SDS011;3647;48.792;9.802;2022-09-09T11:39:13;7.30;;;1.17;;
7211;SDS011;3647;48.792;9.802;2022-09-09T11:42:05;3.85;;;0.75;;
7211;SDS011;3647;48.792;9.802;2022-09-09T11:44:33;6.78;;;1.33;;
7211;SDS011;3647;48.792;9.802;2022-09-09T11:47:00;2.15;;;1.00;;
7211;SDS011;3647;48.792;9.802;2022-09-09T11:49:27;1.02;;;0.70;;
7211;SDS011;3647;48.792;9.802;2022-09-09T11:52:10;4.30;;;1.00;;
7211;SDS011;3647;48.792;9.802;2022-09-09T11:54:46;5.90;;;1.30;;
7211;SDS011;3647;48.792;9.802;2022-09-09T11:57:17;0.82;;;0.80;;
7211;SDS011;3647;48.792;9.802;2022-09-09T11:59:51;2.08;;;1.00;;
7211;SDS011;3647;48.792;9.802;2022-09-09T12:02:18;3.13;;;0.82;;
7211;SDS011;3647;48.792;9.802;2022-09-09T12:04:54;1.48;;;0.90;;
7211;SDS011;3647;48.792;9.802;2022-09-09T12:07:27;1.42;;;1.15;;
7211;SDS011;3647;48.792;9.802;2022-09-09T12:10:00;1.67;;;0.70;;
7211;SDS011;3647;48.792;9.802;2022-09-09T12:12:30;1.50;;;0.70;;
7211;SDS011;3647;48.792;9.802;2022-09-09T12:17:58;1.15;;;0.90;;
7211;SDS011;3647;48.792;9.802;2022-09-09T12:20:30;3.00;;;1.50;;
7211;SDS011;3647;48.792;9.802;2022-09-09T12:23:13;1.65;;;0.70;;
7211;SDS011;3647;48.792;9.802;2022-09-09T12:25:55;1.67;;;0.73;;
7211;SDS011;3647;48.792;9.802;2022-09-09T12:28:33;1.42;;;0.90;;
7211;SDS011;3647;48.792;9.802;2022-09-09T12:31:14;4.15;;;1.02;;
7211;SDS011;3647;48.792;9.802;2022-09-09T12:33:45;1.10;;;1.00;;
7211;SDS011;3647;48.792;9.802;2022-09-09T12:36:14;2.00;;;1.00;;
7211;SDS011;3647;48.792;9.802;2022-09-09T12:38:44;0.93;;;0.93;;
7211;SDS011;3647;48.792;9.802;2022-09-09T12:41:20;1.67;;;0.98;;
7211;SDS011;3647;48.792;9.802;2022-09-09T12:43:49;3.70;;;1.15;;
7211;SDS011;3647;48.792;9.802;2022-09-09T12:46:22;3.55;;;1.20;;
7211;SDS011;3647;48.792;9.802;2022-09-09T12:49:01;2.08;;;1.10;;
7211;SDS011;3647;48.792;9.802;2022-09-09T12:51:32;1.70;;;0.85;;
7211;SDS011;3647;48.792;9.802;2022-09-09T12:54:00;1.27;;;0.90;;
7211;SDS011;3647;48.792;9.802;2022-09-09T12:56:30;6.43;;;1.13;;
7211;SDS011;3647;48.792;9.802;2022-09-09T12:58:58;2.45;;;1.00;;
7211;SDS011;3647;48.792;9.802;2022-09-09T13:01:27;1.75;;;0.90;;
7211;SDS011;3647;48.792;9.802;2022-09-09T13:03:56;1.27;;;1.08;;
7211;SDS011;3647;48.792;9.802;2022-09-09T13:06:24;2.85;;;1.05;;
7211;SDS011;3647;48.792;9.802;2022-09-09T13:08:53;1.58;;;1.05;;
7211;SDS011;3647;48.792;9.802;2022-09-09T13:11:21;0.80;;;0.80;;
7211;SDS011;3647;48.792;9.802;2022-09-09T13:13:55;2.97;;;1.27;;
7211;SDS011;3647;48.792;9.802;2022-09-09T13:16:25;1.88;;;0.80;;
7211;SDS011;3647;48.792;9.802;2022-09-09T13:18:55;3.22;;;0.90;;
7211;SDS011;3647;48.792;9.802;2022-09-09T13:21:30;3.03;;;0.80;;
7211;SDS011;3647;48.792;9.802;2022-09-09T13:23:59;2.67;;;0.80;;
7211;SDS011;3647;48.792;9.802;2022-09-09T13:26:28;2.17;;;0.80;;
7211;SDS011;3647;48.792;9.802;2022-09-09T13:29:07;2.72;;;1.20;;
7211;SDS011;3647;48.792;9.802;2022-09-09T13:31:36;1.15;;;0.80;;
7211;SDS011;3647;48.792;9.802;2022-09-09T13:34:10;0.98;;;0.60;;
7211;SDS011;3647;48.792;9.802;2022-09-09T13:36:38;1.33;;;0.90;;
7211;SDS011;3647;48.792;9.802;2022-09-09T13:39:12;1.08;;;0.80;;
7211;SDS011;3647;48.792;9.802;2022-09-09T13:41:43;4.97;;;0.98;;
7211;SDS011;3647;48.792;9.802;2022-09-09T13:44:17;1.35;;;0.90;;
7211;SDS011;3647;48.792;9.802;2022-09-09T13:46:48;1.23;;;1.13;;
7211;SDS011;3647;48.792;9.802;2022-09-09T13:49:28;1.60;;;0.98;;
7211;SDS011;3647;48.792;9.802;2022-09-09T13:52:09;1.35;;;1.02;;
7211;SDS011;3647;48.792;9.802;2022-09-09T13:54:38;2.63;;;1.00;;
7211;SDS011;3647;48.792;9.802;2022-09-09T13:57:12;2.40;;;0.70;;
7211;SDS011;3647;48.792;9.802;2022-09-09T13:59:44;2.85;;;0.85;;
7211;SDS011;3647;48.792;9.802;2022-09-09T14:02:12;2.65;;;0.75;;
7211;SDS011;3647;48.792;9.802;2022-09-09T14:04:39;1.58;;;1.00;;
7211;SDS011;3647;48.792;9.802;2022-09-09T14:07:08;3.00;;;0.70;;
7211;SDS011;3647;48.792;9.802;2022-09-09T14:09:37;1.58;;;0.88;;
7211;SDS011;3647;48.792;9.802;2022-09-09T14:12:05;0.70;;;0.70;;
7211;SDS011;3647;48.792;9.802;2022-09-09T14:14:33;1.48;;;0.93;;
7211;SDS011;3647;48.792;9.802;2022-09-09T14:17:01;3.45;;;1.00;;
7211;SDS011;3647;48.792;9.802;2022-09-09T14:19:28;2.25;;;1.02;;
7211;SDS011;3647;48.792;9.802;2022-09-09T14:21:55;2.30;;;0.70;;
7211;SDS011;3647;48.792;9.802;2022-09-09T14:24:22;2.00;;;0.70;;
7211;SDS011;3647;48.792;9.802;2022-09-09T14:26:50;1.80;;;0.90;;
7211;SDS011;3647;48.792;9.802;2022-09-09T14:29:16;3.22;;;0.95;;
7211;SDS011;3647;48.792;9.802;2022-09-09T14:31:43;1.95;;;0.90;;
7211;SDS011;3647;48.792;9.802;2022-09-09T14:34:11;1.95;;;0.90;;
7211;SDS011;3647;48.792;9.802;2022-09-09T14:36:39;1.10;;;0.80;;
7211;SDS011;3647;48.792;9.802;2022-09-09T14:39:06;3.13;;;1.05;;
7211;SDS011;3647;48.792;9.802;2022-09-09T14:41:33;1.73;;;1.27;;
7211;SDS011;3647;48.792;9.802;2022-09-09T14:44:00;5.57;;;1.00;;
7211;SDS011;3647;48.792;9.802;2022-09-09T14:46:26;2.38;;;0.98;;
7211;SDS011;3647;48.792;9.802;2022-09-09T14:48:53;2.10;;;0.90;;
7211;SDS011;3647;48.792;9.802;2022-09-09T14:51:23;1.35;;;0.88;;
7211;SDS011;3647;48.792;9.802;2022-09-09T14:53:52;1.20;;;0.75;;
7211;SDS011;3647;48.792;9.802;2022-09-09T14:56:21;3.95;;;1.67;;
7211;SDS011;3647;48.792;9.802;2022-09-09T14:58:49;1.38;;;0.73;;
7211;SDS011;3647;48.792;9.802;2022-09-09T15:01:17;0.88;;;0.70;;
7211;SDS011;3647;48.792;9.802;2022-09-09T15:03:48;1.92;;;1.10;;
7211;SDS011;3647;48.792;9.802;2022-09-09T15:06:17;1.63;;;0.70;;
7211;SDS011;3647;48.792;9.802;2022-09-09T15:08:46;2.13;;;0.60;;
7211;SDS011;3647;48.792;9.802;2022-09-09T15:11:14;2.67;;;1.52;;
7211;SDS011;3647;48.792;9.802;2022-09-09T15:13:41;2.75;;;0.70;;
7211;SDS011;3647;48.792;9.802;2022-09-09T15:16:10;1.42;;;0.70;;
7211;SDS011;3647;48.792;9.802;2022-09-09T15:18:37;1.02;;;0.93;;
7211;SDS011;3647;48.792;9.802;2022-09-09T15:21:08;0.93;;;0.60;;
7211;SDS011;3647;48.792;9.802;2022-09-09T15:23:35;3.03;;;0.90;;
7211;SDS011;3647;48.792;9.802;2022-09-09T15:26:04;2.08;;;0.80;;
7211;SDS011;3647;48.792;9.802;2022-09-09T15:28:32;2.25;;;0.60;;
7211;SDS011;3647;48.792;9.802;2022-09-09T15:31:04;1.38;;;0.70;;
7211;SDS011;3647;48.792;9.802;2022-09-09T15:33:32;1.65;;;0.63;;
7211;SDS011;3647;48.792;9.802;2022-09-09T15:36:00;1.55;;;0.50;;
7211;SDS011;3647;48.792;9.802;2022-09-09T15:38:37;1.35;;;0.63;;
7211;SDS011;3647;48.792;9.802;2022-09-09T15:41:06;1.98;;;0.68;;
7211;SDS011;3647;48.792;9.802;2022-09-09T15:43:32;1.80;;;0.90;;
7211;SDS011;3647;48.792;9.802;2022-09-09T15:46:02;0.95;;;0.73;;
7211;SDS011;3647;48.792;9.802;2022-09-09T15:48:49;1.27;;;0.63;;
7211;SDS011;3647;48.792;9.802;2022-09-09T15:51:17;2.67;;;0.80;;
7211;SDS011;3647;48.792;9.802;2022-09-09T15:53:45;3.67;;;0.80;;
7211;SDS011;3647;48.792;9.802;2022-09-09T15:56:13;1.67;;;0.60;;
7211;SDS011;3647;48.792;9.802;2022-09-09T15:58:40;2.17;;;1.00;;
7211;SDS011;3647;48.792;9.802;2022-09-09T16:01:09;1.00;;;0.68;;
7211;SDS011;3647;48.792;9.802;2022-09-09T16:03:38;1.50;;;1.23;;
7211;SDS011;3647;48.792;9.802;2022-09-09T16:06:06;1.10;;;0.70;;
7211;SDS011;3647;48.792;9.802;2022-09-09T16:08:33;2.38;;;0.65;;
7211;SDS011;3647;48.792;9.802;2022-09-09T16:11:05;2.00;;;0.93;;
7211;SDS011;3647;48.792;9.802;2022-09-09T16:13:36;1.17;;;0.90;;
7211;SDS011;3647;48.792;9.802;2022-09-09T16:16:04;1.85;;;0.75;;
7211;SDS011;3647;48.792;9.802;2022-09-09T16:18:35;0.82;;;0.55;;
7211;SDS011;3647;48.792;9.802;2022-09-09T16:21:02;1.90;;;0.60;;
7211;SDS011;3647;48.792;9.802;2022-09-09T16:23:30;0.75;;;0.60;;
7211;SDS011;3647;48.792;9.802;2022-09-09T16:25:57;0.68;;;0.63;;
7211;SDS011;3647;48.792;9.802;2022-09-09T16:28:24;1.92;;;0.70;;
7211;SDS011;3647;48.792;9.802;2022-09-09T16:30:53;2.33;;;0.85;;
7211;SDS011;3647;48.792;9.802;2022-09-09T16:33:20;0.77;;;0.70;;
7211;SDS011;3647;48.792;9.802;2022-09-09T16:35:47;1.05;;;0.80;;
7211;SDS011;3647;48.792;9.802;2022-09-09T16:38:15;0.60;;;0.60;;
7211;SDS011;3647;48.792;9.802;2022-09-09T16:40:42;1.33;;;1.00;;
7211;SDS011;3647;48.792;9.802;2022-09-09T16:43:09;1.10;;;0.98;;
7211;SDS011;3647;48.792;9.802;2022-09-09T16:45:41;2.45;;;0.68;;
7211;SDS011;3647;48.792;9.802;2022-09-09T16:48:11;2.45;;;0.75;;
7211;SDS011;3647;48.792;9.802;2022-09-09T16:50:37;2.15;;;0.95;;
7211;SDS011;3647;48.792;9.802;2022-09-09T16:53:05;3.90;;;1.45;;
7211;SDS011;3647;48.792;9.802;2022-09-09T16:55:37;0.85;;;0.85;;
7211;SDS011;3647;48.792;9.802;2022-09-09T16:58:07;3.25;;;0.80;;
7211;SDS011;3647;48.792;9.802;2022-09-09T17:00:36;1.92;;;0.77;;
7211;SDS011;3647;48.792;9.802;2022-09-09T17:03:02;1.65;;;0.75;;
7211;SDS011;3647;48.792;9.802;2022-09-09T17:05:31;1.17;;;0.90;;
7211;SDS011;3647;48.792;9.802;2022-09-09T17:07:58;3.45;;;0.98;;
7211;SDS011;3647;48.792;9.802;2022-09-09T17:10:25;3.60;;;0.60;;
7211;SDS011;3647;48.792;9.802;2022-09-09T17:12:52;1.27;;;0.80;;
7211;SDS011;3647;48.792;9.802;2022-09-09T17:15:19;1.77;;;0.80;;
7211;SDS011;3647;48.792;9.802;2022-09-09T17:17:46;1.80;;;0.80;;
7211;SDS011;3647;48.792;9.802;2022-09-09T17:20:15;1.45;;;0.80;;
7211;SDS011;3647;48.792;9.802;2022-09-09T17:22:43;1.15;;;1.02;;
7211;SDS011;3647;48.792;9.802;2022-09-09T17:25:10;1.60;;;0.65;;
7211;SDS011;3647;48.792;9.802;2022-09-09T17:27:40;2.72;;;0.90;;
7211;SDS011;3647;48.792;9.802;2022-09-09T17:30:15;4.07;;;1.00;;
7211;SDS011;3647;48.792;9.802;2022-09-09T17:32:42;2.75;;;0.70;;
7211;SDS011;3647;48.792;9.802;2022-09-09T17:35:08;0.90;;;0.70;;
7211;SDS011;3647;48.792;9.802;2022-09-09T17:37:35;1.13;;;0.73;;
7211;SDS011;3647;48.792;9.802;2022-09-09T17:40:04;0.98;;;0.88;;
7211;SDS011;3647;48.792;9.802;2022-09-09T17:42:31;1.73;;;0.80;;
7211;SDS011;3647;48.792;9.802;2022-09-09T17:44:58;2.45;;;0.70;;
7211;SDS011;3647;48.792;9.802;2022-09-09T17:47:24;4.30;;;0.70;;
7211;SDS011;3647;48.792;9.802;2022-09-09T17:49:51;0.90;;;0.70;;
7211;SDS011;3647;48.792;9.802;2022-09-09T17:52:18;0.70;;;0.70;;
7211;SDS011;3647;48.792;9.802;2022-09-09T17:54:45;0.75;;;0.75;;
7211;SDS011;3647;48.792;9.802;2022-09-09T17:57:13;1.25;;;0.80;;
7211;SDS011;3647;48.792;9.802;2022-09-09T17:59:42;1.33;;;0.82;;
7211;SDS011;3647;48.792;9.802;2022-09-09T18:02:09;0.93;;;0.60;;
7211;SDS011;3647;48.792;9.802;2022-09-09T18:04:37;0.73;;;0.70;;
7211;SDS011;3647;48.792;9.802;2022-09-09T18:07:04;0.65;;;0.65;;
7211;SDS011;3647;48.792;9.802;2022-09-09T18:09:31;2.92;;;0.75;;
7211;SDS011;3647;48.792;9.802;2022-09-09T18:11:58;1.75;;;0.70;;
7211;SDS011;3647;48.792;9.802;2022-09-09T18:14:28;2.65;;;0.88;;
7211;SDS011;3647;48.792;9.802;2022-09-09T18:16:56;1.02;;;0.90;;
7211;SDS011;3647;48.792;9.802;2022-09-09T18:19:25;1.20;;;0.82;;
7211;SDS011;3647;48.792;9.802;2022-09-09T18:21:53;1.20;;;0.68;;
7211;SDS011;3647;48.792;9.802;2022-09-09T18:24:20;1.95;;;0.77;;
7211;SDS011;3647;48.792;9.802;2022-09-09T18:26:49;1.85;;;1.10;;
7211;SDS011;3647;48.792;9.802;2022-09-09T18:29:17;0.73;;;0.73;;
7211;SDS011;3647;48.792;9.802;2022-09-09T18:31:46;1.02;;;0.60;;
7211;SDS011;3647;48.792;9.802;2022-09-09T18:34:14;1.25;;;0.73;;
7211;SDS011;3647;48.792;9.802;2022-09-09T18:36:43;2.50;;;0.85;;
7211;SDS011;3647;48.792;9.802;2022-09-09T18:39:12;0.68;;;0.50;;
7211;SDS011;3647;48.792;9.802;2022-09-09T18:41:41;0.60;;;0.60;;
7211;SDS011;3647;48.792;9.802;2022-09-09T18:44:10;0.57;;;0.57;;
7211;SDS011;3647;48.792;9.802;2022-09-09T18:46:40;0.85;;;0.55;;
7211;SDS011;3647;48.792;9.802;2022-09-09T18:49:09;6.43;;;0.80;;
7211;SDS011;3647;48.792;9.802;2022-09-09T18:51:37;2.45;;;1.38;;
7211;SDS011;3647;48.792;9.802;2022-09-09T18:54:06;1.42;;;0.80;;
7211;SDS011;3647;48.792;9.802;2022-09-09T18:56:35;1.55;;;0.70;;
7211;SDS011;3647;48.792;9.802;2022-09-09T18:59:03;1.95;;;0.70;;
7211;SDS011;3647;48.792;9.802;2022-09-09T19:01:32;0.73;;;0.63;;
7211;SDS011;3647;48.792;9.802;2022-09-09T19:04:00;0.60;;;0.60;;
7211;SDS011;3647;48.792;9.802;2022-09-09T19:06:30;0.70;;;0.70;;
7211;SDS011;3647;48.792;9.802;2022-09-09T19:08:58;4.82;;;0.75;;
7211;SDS011;3647;48.792;9.802;2022-09-09T19:11:25;0.63;;;0.60;;
7211;SDS011;3647;48.792;9.802;2022-09-09T19:13:54;1.60;;;0.77;;
7211;SDS011;3647;48.792;9.802;2022-09-09T19:16:22;1.00;;;0.90;;
7211;SDS011;3647;48.792;9.802;2022-09-09T19:18:51;4.00;;;1.08;;
7211;SDS011;3647;48.792;9.802;2022-09-09T19:21:20;1.13;;;0.85;;
7211;SDS011;3647;48.792;9.802;2022-09-09T19:23:56;1.50;;;1.27;;
7211;SDS011;3647;48.792;9.802;2022-09-09T19:26:40;1.88;;;0.98;;
7211;SDS011;3647;48.792;9.802;2022-09-09T19:29:10;3.47;;;1.10;;
7211;SDS011;3647;48.792;9.802;2022-09-09T19:31:55;1.00;;;0.90;;
7211;SDS011;3647;48.792;9.802;2022-09-09T19:34:26;1.50;;;0.88;;
7211;SDS011;3647;48.792;9.802;2022-09-09T19:37:10;1.00;;;0.90;;
7211;SDS011;3647;48.792;9.802;2022-09-09T19:39:39;1.92;;;1.20;;
7211;SDS011;3647;48.792;9.802;2022-09-09T19:42:08;2.38;;;0.90;;
7211;SDS011;3647;48.792;9.802;2022-09-09T19:44:37;2.20;;;1.33;;
7211;SDS011;3647;48.792;9.802;2022-09-09T19:47:04;2.05;;;0.90;;
7211;SDS011;3647;48.792;9.802;2022-09-09T19:49:32;2.70;;;1.38;;
7211;SDS011;3647;48.792;9.802;2022-09-09T19:52:01;2.33;;;1.15;;
7211;SDS011;3647;48.792;9.802;2022-09-09T19:54:29;3.00;;;1.30;;
7211;SDS011;3647;48.792;9.802;2022-09-09T19:56:59;2.05;;;1.20;;
7211;SDS011;3647;48.792;9.802;2022-09-09T19:59:26;1.30;;;1.00;;
7211;SDS011;3647;48.792;9.802;2022-09-09T20:01:53;1.52;;;1.10;;
7211;SDS011;3647;48.792;9.802;2022-09-09T20:04:22;1.75;;;1.17;;
7211;SDS011;3647;48.792;9.802;2022-09-09T20:06:50;2.25;;;1.40;;
7211;SDS011;3647;48.792;9.802;2022-09-09T20:09:18;3.85;;;1.33;;
7211;SDS011;3647;48.792;9.802;2022-09-09T20:11:51;2.92;;;1.42;;
7211;SDS011;3647;48.792;9.802;2022-09-09T20:14:20;1.85;;;1.33;;
7211;SDS011;3647;48.792;9.802;2022-09-09T20:16:50;2.42;;;1.63;;
7211;SDS011;3647;48.792;9.802;2022-09-09T20:19:18;2.60;;;1.10;;
7211;SDS011;3647;48.792;9.802;2022-09-09T20:21:45;3.28;;;1.70;;
7211;SDS011;3647;48.792;9.802;2022-09-09T20:24:14;1.53;;;1.43;;
7211;SDS011;3647;48.792;9.802;2022-09-09T20:26:42;2.47;;;1.98;;
7211;SDS011;3647;48.792;9.802;2022-09-09T20:29:11;2.47;;;1.40;;
7211;SDS011;3647;48.792;9.802;2022-09-09T20:31:40;3.50;;;1.97;;
7211;SDS011;3647;48.792;9.802;2022-09-09T20:34:12;2.80;;;1.90;;
7211;SDS011;3647;48.792;9.802;2022-09-09T20:36:43;1.80;;;1.48;;
7211;SDS011;3647;48.792;9.802;2022-09-09T20:39:11;1.70;;;1.50;;
7211;SDS011;3647;48.792;9.802;2022-09-09T20:41:42;1.47;;;1.33;;
7211;SDS011;3647;48.792;9.802;2022-09-09T20:44:11;1.73;;;1.40;;
7211;SDS011;3647;48.792;9.802;2022-09-09T20:46:42;2.60;;;1.10;;
